Time;durP1;ratioP1;P1;durP2;ratioP2;P2;SDS_P1;SDS_P2;PMS_P1;PMS_P2;Temp;Humidity;BMP_temperature;BMP_pressure;BME280_temperature;BME280_humidity;BME280_pressure;Samples;Min_cycle;Max_cycle;Signal;HPM_P1;HPM_P2
2023/03/03 00:00:00;;;;;;;24.35;12.90;;;;;;;2.39;65.72;98333.22;5042432;28;20062;-85
2023/03/03 00:02:25;;;;;;;24.40;12.65;;;;;;;2.31;65.85;98333.13;5040107;28;20408;-85
2023/03/03 00:04:51;;;;;;;23.92;13.30;;;;;;;2.28;66.35;98337.75;5063590;28;20116;-84
2023/03/03 00:07:21;;;;;;;24.65;13.15;;;;;;;2.14;67.17;98320.91;5046953;28;20048;-85
2023/03/03 00:09:48;;;;;;;24.50;12.70;;;;;;;2.13;67.46;98316.69;5048795;28;20081;-85
2023/03/03 00:12:22;;;;;;;24.42;11.65;;;;;;;2.20;67.08;98325.53;5048072;28;20110;-85
2023/03/03 00:14:47;;;;;;;25.45;12.38;;;;;;;2.12;66.34;98323.66;5041295;28;20048;-85
2023/03/03 00:17:29;;;;;;;23.27;12.18;;;;;;;2.02;66.20;98319.44;5047004;28;20037;-85
2023/03/03 00:19:56;;;;;;;24.92;11.82;;;;;;;1.97;66.84;98334.56;5045886;28;20475;-85
2023/03/03 00:22:36;;;;;;;24.63;12.65;;;;;;;1.88;68.21;98337.03;5044463;28;20076;-85
2023/03/03 00:25:32;;;;;;;29.15;13.82;;;;;;;1.98;69.05;98333.59;5048385;28;20036;-85
2023/03/03 00:28:15;;;;;;;24.23;12.10;;;;;;;1.90;68.71;98329.13;5046316;28;20514;-85
2023/03/03 00:30:40;;;;;;;24.90;12.98;;;;;;;1.82;68.26;98327.25;5043398;28;20044;-85
2023/03/03 00:33:31;;;;;;;23.50;12.27;;;;;;;1.74;68.71;98334.91;5040541;28;20385;-85
2023/03/03 00:36:15;;;;;;;24.40;13.23;;;;;;;1.71;68.53;98332.56;5042311;28;20116;-85
2023/03/03 00:38:42;;;;;;;25.70;12.45;;;;;;;1.71;68.75;98342.09;5043074;28;20362;-85
2023/03/03 00:41:26;;;;;;;24.55;13.20;;;;;;;1.69;68.65;98325.91;5047699;28;20059;-85
2023/03/03 00:43:53;;;;;;;22.02;11.90;;;;;;;1.65;69.41;98337.47;5043356;28;20039;-84
2023/03/03 00:46:22;;;;;;;22.30;12.05;;;;;;;1.62;69.07;98336.00;5043493;28;20122;-85
2023/03/03 00:48:50;;;;;;;25.63;13.52;;;;;;;1.66;69.45;98336.53;5046584;28;20036;-85
2023/03/03 00:51:34;;;;;;;24.10;12.48;;;;;;;1.53;69.26;98341.97;5046793;28;20044;-85
2023/03/03 00:54:00;;;;;;;24.58;12.35;;;;;;;1.49;69.44;98340.59;5046588;28;20437;-85
2023/03/03 00:56:26;;;;;;;22.98;12.02;;;;;;;1.44;69.19;98327.25;5047956;28;20045;-85
2023/03/03 00:58:53;;;;;;;21.63;11.48;;;;;;;1.52;69.33;98348.09;5043803;28;20535;-85
2023/03/03 01:01:18;;;;;;;24.17;12.18;;;;;;;1.49;69.24;98343.19;5047854;28;20041;-85
2023/03/03 01:03:44;;;;;;;21.02;11.75;;;;;;;1.49;69.08;98353.53;5049190;28;20040;-84
2023/03/03 01:06:11;;;;;;;26.42;12.68;;;;;;;1.52;68.99;98353.28;5048020;28;20120;-84
2023/03/03 01:08:37;;;;;;;26.92;12.70;;;;;;;1.58;68.94;98350.94;5044411;28;20450;-84
2023/03/03 01:11:10;;;;;;;22.10;11.15;;;;;;;1.62;68.75;98343.75;5047689;28;20064;-85
2023/03/03 01:13:38;;;;;;;26.27;13.40;;;;;;;1.72;68.24;98349.72;5059970;28;20045;-85
2023/03/03 01:16:05;;;;;;;25.02;13.45;;;;;;;1.77;68.48;98344.94;5045480;28;20094;-84
2023/03/03 01:18:31;;;;;;;22.02;12.30;;;;;;;1.85;68.76;98352.81;5048174;28;20094;-85
2023/03/03 01:20:57;;;;;;;25.13;12.88;;;;;;;1.91;68.40;98348.06;5046998;28;20033;-85
2023/03/03 01:23:22;;;;;;;22.33;11.82;;;;;;;1.77;67.99;98351.91;5046962;28;20068;-84
2023/03/03 01:25:48;;;;;;;23.02;12.45;;;;;;;1.84;68.34;98353.78;5043757;28;20037;-84
2023/03/03 01:28:13;;;;;;;25.55;12.07;;;;;;;1.71;67.83;98348.09;5045089;28;20044;-84
2023/03/03 01:30:39;;;;;;;21.67;10.88;;;;;;;1.65;67.87;98335.72;5046027;28;20115;-84
2023/03/03 01:33:04;;;;;;;22.77;10.48;;;;;;;1.54;67.33;98312.56;5051219;28;20028;-84
2023/03/03 01:35:30;;;;;;;21.05;10.70;;;;;;;1.59;67.14;98331.91;5044429;28;20423;-85
2023/03/03 01:37:57;;;;;;;20.95;11.82;;;;;;;1.52;67.10;98337.75;5046205;28;21501;-84
2023/03/03 01:40:26;;;;;;;21.80;11.35;;;;;;;1.44;67.74;98327.25;5043872;28;20083;-85
2023/03/03 01:42:52;;;;;;;21.17;11.07;;;;;;;1.36;67.94;98327.13;5058377;28;20467;-84
2023/03/03 01:45:52;;;;;;;26.63;12.02;;;;;;;1.34;67.96;98333.25;5045854;28;20049;-84
2023/03/03 01:48:43;;;;;;;23.40;11.80;;;;;;;1.26;68.15;98325.38;5032517;28;20133;-84
2023/03/03 01:51:32;;;;;;;27.87;11.90;;;;;;;1.12;68.84;98333.50;5046718;28;20032;-84
2023/03/03 01:54:17;;;;;;;23.85;11.40;;;;;;;1.01;70.15;98325.88;5058705;28;20045;-84
2023/03/03 01:56:43;;;;;;;20.52;10.82;;;;;;;0.77;70.72;98329.63;5047713;28;20032;-84
2023/03/03 01:59:19;;;;;;;23.35;12.55;;;;;;;0.71;70.90;98327.56;5038995;28;20055;-85
2023/03/03 02:01:47;;;;;;;25.05;11.50;;;;;;;0.74;71.19;98319.56;5046871;28;20091;-85
2023/03/03 02:04:14;;;;;;;21.48;11.10;;;;;;;0.77;71.78;98310.75;5045756;28;20047;-84
2023/03/03 02:06:49;;;;;;;21.30;10.63;;;;;;;0.76;71.76;98315.09;5045925;28;20044;-84
2023/03/03 02:09:38;;;;;;;21.40;11.82;;;;;;;0.74;71.86;98309.25;5044924;28;20104;-84
2023/03/03 02:12:10;;;;;;;24.40;11.60;;;;;;;0.70;71.80;98307.88;5044880;28;20429;-84
2023/03/03 02:14:36;;;;;;;21.00;10.80;;;;;;;0.65;71.88;98304.88;5043060;28;20146;-84
2023/03/03 02:17:01;;;;;;;23.95;11.45;;;;;;;0.61;72.13;98305.28;5049220;28;20057;-85
2023/03/03 02:19:45;;;;;;;20.00;11.15;;;;;;;0.70;71.86;98318.19;5046569;28;20033;-86
2023/03/03 02:22:15;;;;;;;23.42;12.50;;;;;;;0.74;71.93;98323.94;5045897;28;20554;-85
2023/03/03 02:24:55;;;;;;;25.03;12.07;;;;;;;0.73;72.06;98317.94;5044337;28;20040;-84
2023/03/03 02:27:21;;;;;;;21.48;10.63;;;;;;;0.50;72.59;98316.50;5043254;28;20044;-84
2023/03/03 02:29:47;;;;;;;22.52;11.98;;;;;;;0.44;73.36;98320.44;5046794;28;20033;-84
2023/03/03 02:32:12;;;;;;;20.40;11.35;;;;;;;0.42;73.15;98324.91;5042710;28;20116;-84
2023/03/03 02:34:50;;;;;;;20.95;11.35;;;;;;;0.37;73.38;98332.22;5042039;28;20047;-84
2023/03/03 02:37:18;;;;;;;22.85;11.95;;;;;;;0.42;73.75;98324.91;5043799;28;20037;-84
2023/03/03 02:39:44;;;;;;;22.60;11.77;;;;;;;0.53;73.63;98331.72;5041577;28;20500;-85
2023/03/03 02:42:28;;;;;;;24.48;11.82;;;;;;;0.62;73.31;98325.78;5044264;28;20047;-84
2023/03/03 02:44:54;;;;;;;24.25;12.05;;;;;;;0.58;72.73;98311.50;5046431;28;20037;-84
2023/03/03 02:47:19;;;;;;;24.85;12.18;;;;;;;0.65;72.98;98328.09;5055888;28;20049;-84
2023/03/03 02:49:45;;;;;;;24.52;12.23;;;;;;;0.76;73.33;98324.59;5044069;28;20107;-84
2023/03/03 02:52:13;;;;;;;24.52;12.35;;;;;;;0.88;72.70;98326.13;5044771;28;20082;-84
2023/03/03 02:54:39;;;;;;;22.75;11.90;;;;;;;0.93;72.53;98328.31;5042642;28;20060;-84
2023/03/03 02:57:06;;;;;;;24.02;12.75;;;;;;;0.88;72.21;98330.47;5046324;28;20124;-84
2023/03/03 02:59:31;;;;;;;23.67;11.80;;;;;;;0.82;72.06;98325.84;5043786;28;20112;-85
2023/03/03 03:01:57;;;;;;;24.98;11.88;;;;;;;0.71;72.28;98325.00;5043852;28;20108;-84
2023/03/03 03:04:25;;;;;;;24.50;12.70;;;;;;;0.73;72.81;98325.69;5045808;28;20132;-84
2023/03/03 03:06:52;;;;;;;23.55;11.32;;;;;;;0.70;72.70;98328.53;5046875;28;20703;-84
2023/03/03 03:09:21;;;;;;;20.33;11.18;;;;;;;0.74;73.23;98324.75;5044555;28;20404;-85
2023/03/03 03:11:46;;;;;;;25.88;11.80;;;;;;;0.82;73.34;98334.41;5040388;28;20392;-84
2023/03/03 03:14:14;;;;;;;22.80;12.27;;;;;;;0.70;73.00;98336.28;5044839;28;20045;-84
2023/03/03 03:16:40;;;;;;;30.27;11.88;;;;;;;0.64;73.23;98331.63;5044377;28;20049;-84
2023/03/03 03:19:07;;;;;;;23.10;11.93;;;;;;;0.64;72.71;98336.78;5045858;28;20029;-84
2023/03/03 03:21:32;;;;;;;26.13;12.43;;;;;;;0.61;73.06;98338.84;5043698;28;20064;-85
2023/03/03 03:23:59;;;;;;;24.27;12.07;;;;;;;0.52;74.00;98330.09;5043916;28;20529;-85
2023/03/03 03:26:25;;;;;;;19.67;9.88;;;;;;;0.51;74.47;98331.06;5043084;28;20029;-84
2023/03/03 03:28:50;;;;;;;24.13;11.85;;;;;;;0.55;74.88;98335.00;5041908;28;20064;-84
2023/03/03 03:31:18;;;;;;;25.00;12.25;;;;;;;0.45;75.20;98337.53;5044336;28;20112;-84
2023/03/03 03:33:43;;;;;;;21.92;11.07;;;;;;;0.52;75.55;98343.00;5040318;28;20036;-85
2023/03/03 03:36:10;;;;;;;25.80;12.00;;;;;;;0.60;75.24;98339.75;5042671;28;20036;-84
2023/03/03 03:38:36;;;;;;;24.67;12.07;;;;;;;0.61;74.85;98347.41;5055062;28;20051;-84
2023/03/03 03:41:05;;;;;;;24.02;12.30;;;;;;;0.65;74.79;98350.50;5043617;28;20034;-84
2023/03/03 03:43:31;;;;;;;24.13;13.55;;;;;;;0.66;74.50;98342.66;5043641;28;20448;-85
2023/03/03 03:45:56;;;;;;;29.00;13.25;;;;;;;0.67;74.08;98349.44;5042478;28;20094;-85
2023/03/03 03:48:22;;;;;;;26.55;13.95;;;;;;;0.71;73.94;98340.47;5045259;28;20033;-85
2023/03/03 03:50:49;;;;;;;23.75;11.80;;;;;;;0.72;73.82;98342.13;5041228;28;20033;-85
2023/03/03 03:53:16;;;;;;;22.73;12.32;;;;;;;0.75;73.24;98341.88;5039784;28;20505;-84
2023/03/03 03:55:43;;;;;;;27.73;12.32;;;;;;;0.67;73.57;98339.13;5045707;28;20469;-85
2023/03/03 03:58:16;;;;;;;27.10;14.35;;;;;;;0.46;73.95;98341.75;5043012;28;20087;-85
2023/03/03 04:00:44;;;;;;;26.67;13.20;;;;;;;0.32;74.69;98333.56;5033177;28;20400;-84
2023/03/03 04:03:13;;;;;;;27.67;12.68;;;;;;;0.27;75.16;98341.69;5041139;28;20045;-85
2023/03/03 04:05:39;;;;;;;25.98;12.00;;;;;;;0.21;75.64;98337.84;5049514;28;20053;-85
2023/03/03 04:08:05;;;;;;;25.60;12.70;;;;;;;0.23;75.72;98335.13;5045180;28;20033;-85
2023/03/03 04:10:31;;;;;;;27.48;12.85;;;;;;;0.21;75.65;98330.09;5044958;28;20091;-84
2023/03/03 04:12:56;;;;;;;28.17;14.20;;;;;;;0.26;76.36;98340.88;5046666;28;20052;-85
2023/03/03 04:15:22;;;;;;;24.08;12.68;;;;;;;0.33;75.94;98340.34;5043932;28;20029;-85
2023/03/03 04:17:47;;;;;;;24.67;12.95;;;;;;;0.37;75.75;98331.41;5044309;28;20033;-84
2023/03/03 04:20:14;;;;;;;23.15;12.10;;;;;;;0.52;75.59;98343.00;5047556;28;20112;-84
2023/03/03 04:22:41;;;;;;;29.63;13.18;;;;;;;0.51;75.19;98347.34;5035965;28;20404;-85
2023/03/03 04:25:08;;;;;;;26.48;13.15;;;;;;;0.57;75.15;98342.63;5039578;28;20036;-85
2023/03/03 04:27:36;;;;;;;28.92;13.82;;;;;;;0.55;75.26;98345.34;5041662;28;20043;-85
2023/03/03 04:30:05;;;;;;;30.17;14.00;;;;;;;0.66;75.28;98352.16;5045054;28;20033;-84
2023/03/03 04:32:32;;;;;;;27.30;13.80;;;;;;;0.67;74.93;98361.56;5038788;28;20041;-85
2023/03/03 04:34:58;;;;;;;28.85;14.18;;;;;;;0.63;74.86;98367.91;5054253;28;20467;-84
2023/03/03 04:37:24;;;;;;;29.50;14.48;;;;;;;0.55;74.84;98365.16;5043081;28;20113;-85
2023/03/03 04:39:49;;;;;;;28.23;13.10;;;;;;;0.43;74.78;98354.13;5042101;28;20087;-84
2023/03/03 04:42:15;;;;;;;27.77;14.10;;;;;;;0.42;75.14;98362.78;5042657;28;20603;-85
2023/03/03 04:44:40;;;;;;;29.77;14.40;;;;;;;0.30;75.27;98361.22;5038940;28;20041;-85
2023/03/03 04:47:06;;;;;;;24.08;12.43;;;;;;;0.17;76.19;98356.28;5042216;28;20037;-85
2023/03/03 04:49:31;;;;;;;24.40;12.98;;;;;;;0.01;76.81;98343.03;5041845;28;20587;-85
2023/03/03 04:51:57;;;;;;;28.50;12.88;;;;;;;-0.01;77.40;98353.47;5047348;28;20024;-85
2023/03/03 04:54:23;;;;;;;28.63;13.00;;;;;;;0.02;77.60;98353.22;5043181;28;20036;-85
2023/03/03 04:56:48;;;;;;;27.10;14.23;;;;;;;0.14;77.70;98359.13;5040205;28;20162;-85
2023/03/03 04:59:14;;;;;;;26.77;13.32;;;;;;;0.29;77.31;98354.44;5040298;28;20473;-85
2023/03/03 05:01:40;;;;;;;26.98;13.07;;;;;;;0.39;76.94;98357.91;5046401;28;20149;-85
2023/03/03 05:04:06;;;;;;;25.35;12.73;;;;;;;0.35;76.54;98361.66;5040152;28;20025;-85
2023/03/03 05:06:32;;;;;;;24.80;12.70;;;;;;;0.39;76.20;98363.06;5041725;28;20068;-85
2023/03/03 05:08:57;;;;;;;24.35;12.05;;;;;;;0.35;75.11;98364.25;5042490;28;20507;-85
2023/03/03 05:11:23;;;;;;;23.00;11.43;;;;;;;0.41;74.86;98369.72;5040226;28;20111;-85
2023/03/03 05:13:48;;;;;;;25.42;12.68;;;;;;;0.30;74.73;98364.66;5044115;28;20532;-85
2023/03/03 05:16:14;;;;;;;30.80;14.30;;;;;;;0.33;75.65;98372.13;5045390;28;20503;-85
2023/03/03 05:18:40;;;;;;;24.10;13.32;;;;;;;0.35;76.06;98370.22;5042588;28;20048;-85
2023/03/03 05:21:06;;;;;;;24.70;13.48;;;;;;;0.37;75.88;98367.53;5040669;28;20017;-85
2023/03/03 05:23:32;;;;;;;29.50;15.02;;;;;;;0.25;75.94;98369.38;5045323;28;20091;-85
2023/03/03 05:25:57;;;;;;;29.50;13.40;;;;;;;0.18;76.74;98374.22;5041870;28;20041;-85
2023/03/03 05:28:23;;;;;;;32.42;14.10;;;;;;;-0.04;77.33;98369.19;5046863;28;20036;-85
2023/03/03 05:30:49;;;;;;;26.20;13.85;;;;;;;-0.10;78.49;98370.50;5039214;28;20040;-85
2023/03/03 05:33:16;;;;;;;26.98;12.90;;;;;;;-0.28;79.32;98382.31;5039187;28;20071;-85
2023/03/03 05:35:42;;;;;;;28.15;13.85;;;;;;;-0.32;79.96;98368.84;5046255;28;20029;-85
2023/03/03 05:38:08;;;;;;;26.35;14.15;;;;;;;-0.43;80.66;98368.91;5048300;28;20029;-85
2023/03/03 05:40:33;;;;;;;26.88;13.60;;;;;;;-0.44;81.00;98376.75;5046144;28;20112;-85
2023/03/03 05:42:59;;;;;;;27.23;13.00;;;;;;;-0.54;81.44;98376.66;5044458;28;20115;-85
2023/03/03 05:45:24;;;;;;;28.92;13.43;;;;;;;-0.52;81.63;98374.81;5039607;28;20037;-85
2023/03/03 05:47:51;;;;;;;30.17;13.85;;;;;;;-0.46;81.91;98387.19;5063283;28;20036;-85
2023/03/03 05:50:19;;;;;;;34.33;15.88;;;;;;;-0.46;81.82;98383.81;5045698;28;20028;-85
2023/03/03 05:52:49;;;;;;;30.65;14.63;;;;;;;-0.50;82.16;98395.28;5049069;28;20052;-85
2023/03/03 05:55:15;;;;;;;31.20;14.40;;;;;;;-0.51;82.15;98401.41;5040714;28;20475;-85
2023/03/03 05:57:40;;;;;;;27.23;14.52;;;;;;;-0.59;82.57;98395.09;5047549;28;20036;-85
2023/03/03 06:00:07;;;;;;;33.08;15.05;;;;;;;-0.63;83.03;98391.13;5043164;28;20033;-82
2023/03/03 06:02:34;;;;;;;25.85;12.88;;;;;;;-0.80;83.23;98391.63;5049465;28;20041;-85
2023/03/03 06:05:00;;;;;;;27.83;13.15;;;;;;;-0.85;83.76;98394.56;5049305;28;20488;-85
2023/03/03 06:07:25;;;;;;;32.90;13.35;;;;;;;-0.87;84.04;98398.19;5048517;28;20029;-85
2023/03/03 06:09:51;;;;;;;29.52;15.38;;;;;;;-0.82;84.45;98396.09;5047918;28;20039;-85
2023/03/03 06:12:17;;;;;;;32.63;15.27;;;;;;;-0.79;84.36;98407.91;5046027;28;20029;-85
2023/03/03 06:14:42;;;;;;;32.70;15.38;;;;;;;-0.77;84.42;98406.03;5059719;28;20156;-85
2023/03/03 06:17:08;;;;;;;37.35;16.55;;;;;;;-0.69;84.54;98413.97;5045552;28;20503;-85
2023/03/03 06:19:33;;;;;;;31.77;15.75;;;;;;;-0.52;84.20;98410.88;5043288;28;20037;-85
2023/03/03 06:21:59;;;;;;;32.47;15.00;;;;;;;-0.38;83.29;98410.59;5043022;28;20037;-85
2023/03/03 06:24:28;;;;;;;36.25;15.98;;;;;;;-0.12;82.48;98413.66;5042390;28;20036;-85
2023/03/03 06:26:55;;;;;;;28.48;15.32;;;;;;;0.09;81.49;98415.44;5043170;28;20025;-85
2023/03/03 06:29:21;;;;;;;28.55;14.75;;;;;;;0.24;80.53;98414.16;5043413;28;20043;-85
2023/03/03 06:31:47;;;;;;;30.02;15.00;;;;;;;0.31;79.80;98427.38;5048379;28;20033;-85
2023/03/03 06:34:12;;;;;;;36.10;16.02;;;;;;;0.17;79.31;98419.00;5045264;28;20467;-85
2023/03/03 06:36:38;;;;;;;35.72;15.57;;;;;;;0.14;79.21;98427.00;5046308;28;20048;-85
2023/03/03 06:39:03;;;;;;;33.15;16.13;;;;;;;-0.07;79.82;98434.72;5048832;28;20032;-85
2023/03/03 06:41:29;;;;;;;36.47;17.25;;;;;;;-0.27;81.65;98438.91;5044341;28;20037;-84
2023/03/03 06:43:55;;;;;;;31.60;15.80;;;;;;;-0.33;82.58;98444.53;5042896;28;20127;-84
2023/03/03 06:46:21;;;;;;;38.00;16.48;;;;;;;-0.38;83.52;98449.25;5047736;28;20500;-85
2023/03/03 06:48:46;;;;;;;37.08;16.70;;;;;;;-0.33;84.20;98454.84;5049181;28;20557;-85
2023/03/03 06:51:23;;;;;;;36.83;15.68;;;;;;;-0.16;84.31;98458.69;5043992;28;20108;-85
2023/03/03 06:53:55;;;;;;;38.67;16.83;;;;;;;0.00;83.68;98455.69;5047441;28;20526;-85
2023/03/03 06:56:23;;;;;;;35.25;15.93;;;;;;;0.12;82.94;98457.28;5041552;28;20029;-85
2023/03/03 06:58:49;;;;;;;34.70;17.48;;;;;;;0.32;82.03;98468.53;5045824;28;20037;-84
2023/03/03 07:01:16;;;;;;;32.85;16.05;;;;;;;0.45;80.78;98466.56;5047197;28;20111;-84
2023/03/03 07:03:42;;;;;;;33.47;16.17;;;;;;;0.61;80.02;98466.13;5043419;28;20606;-85
2023/03/03 07:06:23;;;;;;;36.42;16.52;;;;;;;0.74;79.26;98453.03;5043477;28;20520;-84
2023/03/03 07:08:51;;;;;;;35.03;16.00;;;;;;;0.81;78.66;98467.03;5043017;28;20039;-84
2023/03/03 07:11:21;;;;;;;39.92;18.85;;;;;;;0.88;78.50;98465.56;5045513;28;20598;-84
2023/03/03 07:13:50;;;;;;;37.65;17.95;;;;;;;0.96;78.82;98464.91;5043216;28;20049;-84
2023/03/03 07:16:18;;;;;;;36.85;17.52;;;;;;;1.06;78.79;98468.38;5056236;28;20476;-85
2023/03/03 07:18:51;;;;;;;37.50;18.60;;;;;;;1.22;78.21;98476.47;5041809;28;20033;-85
2023/03/03 07:21:32;;;;;;;32.53;16.23;;;;;;;1.21;77.67;98474.81;5040462;28;20116;-85
2023/03/03 07:24:07;;;;;;;37.80;16.30;;;;;;;1.26;77.27;98475.25;5041592;28;20507;-85
2023/03/03 07:26:33;;;;;;;41.45;18.67;;;;;;;1.40;77.81;98481.81;5040363;28;20475;-85
2023/03/03 07:29:20;;;;;;;42.25;17.67;;;;;;;1.45;76.91;98484.81;5044244;28;20119;-85
2023/03/03 07:31:48;;;;;;;37.17;18.33;;;;;;;1.25;77.14;98483.13;5040724;28;20040;-85
2023/03/03 07:34:29;;;;;;;39.65;18.80;;;;;;;1.40;77.41;98499.09;5045859;28;20041;-85
2023/03/03 07:37:04;;;;;;;;;;;;;;;1.44;77.57;98493.53;5043517;28;20032;-85
2023/03/03 07:39:39;;;;;;;38.47;16.33;;;;;;;1.61;76.97;98499.81;5046287;28;19912;-85
2023/03/03 07:42:08;;;;;;;43.20;19.25;;;;;;;1.80;77.01;98505.03;5040781;28;20037;-85
2023/03/03 07:44:36;;;;;;;41.92;18.02;;;;;;;1.96;76.56;98504.50;5046568;28;20044;-85
2023/03/03 07:47:19;;;;;;;40.25;16.65;;;;;;;2.21;76.26;98503.13;5059107;28;20048;-84
2023/03/03 07:49:48;;;;;;;39.35;17.88;;;;;;;2.26;75.69;98508.72;5040487;28;20048;-85
2023/03/03 07:52:40;;;;;;;44.60;19.17;;;;;;;2.39;75.55;98517.00;5043746;28;20038;-84
2023/03/03 07:55:32;;;;;;;37.50;18.20;;;;;;;2.37;75.31;98507.78;5043073;28;20017;-85
2023/03/03 07:58:26;;;;;;;43.85;19.70;;;;;;;2.46;75.46;98521.66;5039077;28;20029;-84
2023/03/03 08:01:41;;;;;;;41.63;19.15;;;;;;;2.71;75.43;98531.44;5042143;28;20449;-85
2023/03/03 08:04:49;;;;;;;43.20;19.48;;;;;;;2.80;75.23;98524.59;5035439;28;20026;-84
2023/03/03 08:07:21;;;;;;;42.15;18.88;;;;;;;2.95;75.29;98531.00;5045360;28;20032;-85
2023/03/03 08:09:58;;;;;;;47.35;19.73;;;;;;;3.21;74.56;98524.19;5042305;28;20120;-84
2023/03/03 08:12:41;;;;;;;38.72;18.83;;;;;;;3.26;73.04;98521.19;5045760;28;20563;-84
2023/03/03 08:15:20;;;;;;;39.38;18.55;;;;;;;3.61;73.04;98524.84;5040919;28;20483;-84
2023/03/03 08:17:47;;;;;;;38.50;18.60;;;;;;;3.55;72.70;98508.09;5042665;28;20061;-85
2023/03/03 08:20:28;;;;;;;42.42;18.77;;;;;;;3.75;73.06;98517.38;5041135;28;20040;-84
2023/03/03 08:22:56;;;;;;;36.05;17.25;;;;;;;3.60;71.67;98525.78;5039321;28;20033;-84
2023/03/03 08:25:21;;;;;;;40.05;18.40;;;;;;;3.64;71.70;98524.56;5039959;28;20389;-85
2023/03/03 08:27:47;;;;;;;42.28;19.20;;;;;;;3.79;71.84;98517.94;5043850;28;20033;-84
2023/03/03 08:30:13;;;;;;;36.05;18.80;;;;;;;3.84;71.19;98526.09;5028878;28;20116;-85
2023/03/03 08:32:38;;;;;;;35.67;17.95;;;;;;;3.96;71.52;98529.28;5041609;28;20508;-84
2023/03/03 08:35:04;;;;;;;42.60;18.75;;;;;;;3.87;71.37;98538.75;5040791;28;20091;-84
2023/03/03 08:37:30;;;;;;;39.17;16.35;;;;;;;3.86;71.41;98531.94;5041736;28;20055;-84
2023/03/03 08:39:55;;;;;;;33.80;17.20;;;;;;;3.80;70.95;98518.75;5042992;28;20033;-85
2023/03/03 08:42:21;;;;;;;41.05;18.45;;;;;;;4.09;71.62;98526.34;5041846;28;20037;-84
2023/03/03 08:44:46;;;;;;;37.92;18.17;;;;;;;4.32;70.77;98513.69;5032468;28;20369;-85
2023/03/03 08:47:12;;;;;;;37.75;18.33;;;;;;;4.64;70.75;98520.94;5037535;28;20467;-85
2023/03/03 08:49:38;;;;;;;40.53;18.73;;;;;;;4.84;69.35;98519.78;5039189;28;20048;-86
2023/03/03 08:52:04;;;;;;;34.83;17.48;;;;;;;4.79;66.93;98514.22;5044043;28;20492;-85
2023/03/03 08:54:30;;;;;;;37.67;17.98;;;;;;;4.73;67.44;98527.81;5043091;28;20037;-85
2023/03/03 08:56:55;;;;;;;37.30;19.25;;;;;;;4.66;67.17;98522.41;5041073;28;20095;-85
2023/03/03 08:59:21;;;;;;;34.67;18.17;;;;;;;4.78;67.08;98530.78;5039293;28;20037;-85
2023/03/03 09:01:46;;;;;;;32.60;17.17;;;;;;;4.91;66.87;98520.78;5045148;28;20107;-85
2023/03/03 09:04:12;;;;;;;35.65;17.20;;;;;;;5.10;67.08;98520.59;5042896;28;20040;-85
2023/03/03 09:06:38;;;;;;;37.22;18.40;;;;;;;5.06;65.62;98519.28;5042074;28;20095;-86
2023/03/03 09:09:03;;;;;;;35.47;17.38;;;;;;;5.21;65.28;98521.28;5045228;28;20042;-84
2023/03/03 09:11:29;;;;;;;31.08;15.68;;;;;;;5.09;64.07;98503.34;5041227;28;20064;-85
2023/03/03 09:14:17;;;;;;;35.25;18.20;;;;;;;5.32;64.09;98521.03;5041762;28;20053;-85
2023/03/03 09:16:52;;;;;;;36.10;18.45;;;;;;;5.29;63.18;98521.34;5046801;28;20039;-85
2023/03/03 09:19:26;;;;;;;30.48;15.13;;;;;;;5.23;63.63;98514.97;5045423;28;20048;-85
2023/03/03 09:21:55;;;;;;;25.25;12.20;;;;;;;5.21;62.54;98516.09;5041698;28;20029;-86
2023/03/03 09:24:28;;;;;;;34.47;16.35;;;;;;;5.40;63.17;98521.06;5047687;28;20057;-85
2023/03/03 09:26:57;;;;;;;36.65;18.23;;;;;;;5.60;62.65;98532.03;5044916;28;20057;-85
2023/03/03 09:29:36;;;;;;;34.65;16.13;;;;;;;5.62;62.04;98530.91;5040890;28;20033;-85
2023/03/03 09:32:29;;;;;;;33.72;16.50;;;;;;;5.78;62.08;98534.53;5044589;28;20067;-85
2023/03/03 09:34:54;;;;;;;29.48;15.32;;;;;;;5.91;60.70;98540.13;5044662;28;20045;-85
2023/03/03 09:37:31;;;;;;;32.60;16.92;;;;;;;5.98;60.43;98522.91;5043233;28;20039;-84
2023/03/03 09:39:57;;;;;;;34.17;18.50;;;;;;;5.96;61.27;98519.66;5044902;28;20032;-85
2023/03/03 09:42:35;;;;;;;32.10;17.23;;;;;;;5.97;60.86;98525.66;5043953;28;20071;-84
2023/03/03 09:45:17;;;;;;;29.70;15.70;;;;;;;6.19;59.69;98525.06;5041515;28;20044;-85
2023/03/03 09:48:14;;;;;;;30.60;15.35;;;;;;;6.32;58.69;98535.81;5044113;28;20114;-85
2023/03/03 09:51:11;;;;;;;32.92;17.85;;;;;;;6.20;59.30;98529.28;5045129;28;20064;-85
2023/03/03 09:53:57;;;;;;;30.55;16.17;;;;;;;6.18;57.39;98533.84;5043702;28;20084;-85
2023/03/03 09:56:43;;;;;;;26.48;14.30;;;;;;;6.29;57.40;98540.53;5045783;28;20091;-84
2023/03/03 10:00:08;;;;;;;27.75;15.05;;;;;;;6.21;57.07;98537.91;5042771;28;20044;-86
2023/03/03 10:02:59;;;;;;;27.73;14.57;;;;;;;6.56;57.38;98526.38;5037860;28;20040;-84
2023/03/03 10:05:30;;;;;;;;;;;;;;;6.59;56.22;98539.88;5046653;28;20051;-84
2023/03/03 10:08:23;;;;;;;28.02;14.60;;;;;;;6.61;56.57;98537.94;5040060;28;19917;-83
2023/03/03 10:11:10;;;;;;;23.65;13.00;;;;;;;6.87;56.06;98537.75;5040238;28;20692;-84
2023/03/03 10:14:09;;;;;;;30.95;17.15;;;;;;;7.10;56.26;98537.88;5040741;28;20077;-84
2023/03/03 10:17:05;;;;;;;30.95;16.58;;;;;;;7.26;57.25;98542.25;5040121;28;20087;-83
2023/03/03 10:19:40;;;;;;;29.88;17.45;;;;;;;7.13;57.13;98532.31;5040761;28;20110;-84
2023/03/03 10:22:18;;;;;;;31.00;16.65;;;;;;;6.99;57.12;98538.22;5039951;28;20044;-84
2023/03/03 10:25:20;;;;;;;24.20;12.13;;;;;;;6.95;57.14;98539.53;5040819;28;20851;-85
2023/03/03 10:28:09;;;;;;;32.50;16.88;;;;;;;7.15;57.31;98556.47;5041062;28;20076;-83
2023/03/03 10:31:15;;;;;;;32.63;17.27;;;;;;;7.25;56.35;98549.25;5041632;28;20086;-84
2023/03/03 10:34:00;;;;;;;28.40;15.80;;;;;;;7.39;55.78;98547.75;5040018;28;20494;-83
2023/03/03 10:36:50;;;;;;;30.10;16.70;;;;;;;7.47;55.97;98550.31;5039833;28;20024;-84
2023/03/03 10:39:38;;;;;;;26.88;15.82;;;;;;;7.49;55.44;98548.34;5041164;28;20509;-84
2023/03/03 10:42:31;;;;;;;30.02;16.27;;;;;;;7.75;54.69;98553.31;5041980;28;20021;-84
2023/03/03 10:45:35;;;;;;;30.63;16.98;;;;;;;7.59;54.14;98552.56;5040137;28;20040;-84
2023/03/03 10:48:46;;;;;;;31.88;16.02;;;;;;;7.77;54.32;98546.13;5047743;28;20017;-84
2023/03/03 10:51:48;;;;;;;27.13;15.80;;;;;;;8.00;54.20;98558.44;5042399;28;20495;-89
2023/03/03 10:54:54;;;;;;;28.50;15.05;;;;;;;7.99;53.64;98548.97;5040253;28;20116;-83
2023/03/03 10:57:29;;;;;;;27.27;14.75;;;;;;;8.13;53.14;98550.84;5042796;28;20033;-86
2023/03/03 11:00:25;;;;;;;27.23;15.18;;;;;;;7.98;52.96;98547.34;5037701;28;20033;-82
2023/03/03 11:03:32;;;;;;;28.88;15.55;;;;;;;8.09;51.99;98541.69;5057349;28;20037;-83
2023/03/03 11:06:01;;;;;;;24.45;14.90;;;;;;;8.09;52.92;98539.09;5034577;28;20069;-84
2023/03/03 11:08:38;;;;;;;28.85;16.90;;;;;;;8.20;51.58;98537.88;5040132;28;20040;-84
2023/03/03 11:12:05;;;;;;;26.60;14.85;;;;;;;8.25;51.76;98544.22;5042017;28;20041;-84
2023/03/03 11:15:33;;;;;;;23.85;14.35;;;;;;;8.63;51.07;98543.47;5027398;28;20049;-83
2023/03/03 11:18:33;;;;;;;29.75;15.88;;;;;;;8.63;50.85;98531.22;5039574;28;20469;-84
2023/03/03 11:21:39;;;;;;;27.42;15.10;;;;;;;8.63;50.05;98533.84;5040207;28;20116;-84
2023/03/03 11:24:33;;;;;;;25.42;13.48;;;;;;;8.80;49.69;98519.63;5033273;28;20049;-83
2023/03/03 11:27:29;;;;;;;24.45;14.82;;;;;;;8.69;49.69;98525.28;5041035;28;20033;-81
2023/03/03 11:30:16;;;;;;;24.40;14.63;;;;;;;8.71;49.33;98520.72;5039031;28;20481;-81
2023/03/03 11:32:52;;;;;;;22.92;13.70;;;;;;;9.05;49.15;98524.63;5043622;28;20118;-82
2023/03/03 11:35:36;;;;;;;24.60;14.15;;;;;;;9.17;48.49;98520.56;5041348;28;20045;-81
2023/03/03 11:39:06;;;;;;;26.45;14.18;;;;;;;9.19;48.13;98515.97;5041671;28;20079;-81
2023/03/03 11:41:50;;;;;;;26.67;14.52;;;;;;;9.35;47.83;98515.78;5042098;28;20731;-81
2023/03/03 11:44:43;;;;;;;24.83;14.07;;;;;;;9.30;48.15;98518.16;5041018;28;20040;-82
2023/03/03 11:47:23;;;;;;;23.27;13.43;;;;;;;9.46;47.57;98509.28;5039900;28;20033;-81
2023/03/03 11:50:12;;;;;;;24.25;13.27;;;;;;;9.60;47.41;98507.66;5040570;28;20060;-81
2023/03/03 11:52:52;;;;;;;21.98;12.80;;;;;;;9.61;47.77;98510.09;5038068;28;20539;-81